Anderson, Pennsylvania
Current Conditions -  °F | °C
As of 3:53 PM on Monday 24 Nov 2014 (Local Time) from KUNV Reporting Station
Broken Clouds Broken Clouds  
Wind Chill: 64°   Ceiling: 8500
Heat Index: 64°   Visibility: 10mi
Dew Point: 50°   Wind: 13mph
Humidity: 59%   Direction: 210°SSW
Pressure: 29.51"   Gusts: 22mph
Location:  40.544°N, 77.6033°W
Report Text: KUNV 242053Z 21011G19KT 10SM BKN085 18/10 A2951
Loading
Personal Weather Stations






























Interactive Weather Map New forecast layout! Learn more

10-Day Weather Forecast

Advertisements
Track Severe Weather on mobile